createdAt,value
2023-04-24T00:01:08.930Z,8.51
2023-04-24T00:03:36.371Z,8.53
2023-04-24T00:06:03.912Z,8.44
2023-04-24T00:08:30.932Z,8.38
2023-04-24T00:10:57.701Z,8.41
2023-04-24T00:13:25.009Z,8.53
2023-04-24T00:15:51.727Z,8.53
2023-04-24T00:18:18.728Z,8.59
2023-04-24T00:20:45.946Z,8.31
2023-04-24T00:23:12.731Z,8.31
2023-04-24T00:25:39.750Z,8.09
2023-04-24T00:28:06.513Z,8.10
2023-04-24T00:30:33.329Z,8.15
2023-04-24T00:33:00.224Z,8.14
2023-04-24T00:35:27.038Z,8.07
2023-04-24T00:37:53.821Z,8.08
2023-04-24T00:40:20.797Z,8.09
2023-04-24T00:42:47.702Z,8.09
2023-04-24T00:45:14.717Z,8.21
2023-04-24T00:47:42.862Z,8.09
2023-04-24T00:50:10.050Z,8.22
2023-04-24T00:52:37.126Z,8.25
2023-04-24T00:55:04.312Z,8.32
2023-04-24T00:57:31.663Z,8.35
2023-04-24T00:59:58.820Z,8.30
2023-04-24T01:02:26.117Z,8.31
2023-04-24T01:04:53.038Z,8.28
2023-04-24T01:07:22.945Z,8.24
2023-04-24T01:09:52.197Z,8.24
2023-04-24T01:12:19.668Z,8.25
2023-04-24T01:14:46.938Z,8.08
2023-04-24T01:17:13.670Z,8.17
2023-04-24T01:19:41.617Z,8.16
2023-04-24T01:22:16.307Z,8.20
2023-04-24T01:24:44.032Z,8.04
2023-04-24T01:27:11.405Z,7.98
2023-04-24T01:29:38.376Z,8.06
2023-04-24T01:32:06.024Z,8.06
2023-04-24T01:34:32.977Z,8.08
2023-04-24T01:36:59.873Z,8.19
2023-04-24T01:39:29.011Z,8.08
2023-04-24T01:41:56.815Z,8.14
2023-04-24T01:44:24.458Z,8.18
2023-04-24T01:46:51.819Z,8.31
2023-04-24T01:49:18.958Z,8.29
2023-04-24T01:51:45.962Z,8.30
2023-04-24T01:54:13.196Z,8.42
2023-04-24T01:56:43.873Z,8.38
2023-04-24T01:59:11.911Z,8.40
2023-04-24T02:01:39.896Z,8.43
2023-04-24T02:04:08.467Z,8.26
2023-04-24T02:06:35.580Z,8.20
2023-04-24T02:09:02.552Z,8.41
2023-04-24T02:11:29.320Z,8.35
2023-04-24T02:13:56.144Z,8.30
2023-04-24T02:16:22.944Z,8.31
2023-04-24T02:18:49.767Z,8.41
2023-04-24T02:21:17.079Z,8.32
2023-04-24T02:23:43.800Z,8.49
2023-04-24T02:26:10.975Z,8.53
2023-04-24T02:28:37.766Z,8.49
2023-04-24T02:31:04.555Z,8.40
2023-04-24T02:33:31.408Z,8.35
2023-04-24T02:35:58.193Z,8.33
2023-04-24T02:38:24.989Z,8.31
2023-04-24T02:40:51.709Z,8.29
2023-04-24T02:43:18.408Z,8.33
2023-04-24T02:45:45.246Z,8.34
2023-04-24T02:48:12.084Z,8.43
2023-04-24T02:50:39.687Z,8.46
2023-04-24T02:53:06.407Z,8.49
2023-04-24T02:55:33.284Z,8.25
2023-04-24T02:58:00.049Z,8.27
2023-04-24T03:00:26.815Z,8.31
2023-04-24T03:02:54.533Z,8.28
2023-04-24T03:05:21.422Z,8.32
2023-04-24T03:07:48.629Z,8.35
2023-04-24T03:10:15.464Z,8.43
2023-04-24T03:12:42.227Z,8.43
2023-04-24T03:15:09.610Z,8.39
2023-04-24T03:17:36.562Z,8.30
2023-04-24T03:20:03.705Z,8.28
2023-04-24T03:22:30.579Z,8.22
2023-04-24T03:24:57.788Z,8.14
2023-04-24T03:27:24.751Z,8.13
2023-04-24T03:29:56.593Z,8.19
2023-04-24T03:32:23.895Z,8.26
2023-04-24T03:34:51.378Z,8.18
2023-04-24T03:37:18.135Z,8.24
2023-04-24T03:39:45.336Z,8.34
2023-04-24T03:42:12.222Z,8.48
2023-04-24T03:44:39.024Z,8.44
2023-04-24T03:47:05.921Z,8.50
2023-04-24T03:49:32.933Z,8.50
2023-04-24T03:51:59.664Z,8.52
2023-04-24T03:54:26.439Z,8.53
2023-04-24T03:56:53.219Z,8.44
2023-04-24T03:59:20.139Z,8.37
2023-04-24T04:01:47.479Z,8.43
2023-04-24T04:04:14.346Z,8.43
2023-04-24T04:06:41.258Z,8.48
2023-04-24T04:09:08.469Z,8.47
2023-04-24T04:11:36.516Z,8.54
2023-04-24T04:14:03.516Z,8.47
2023-04-24T04:16:30.362Z,8.38
2023-04-24T04:18:57.149Z,8.43
2023-04-24T04:21:23.987Z,8.48
2023-04-24T04:23:50.687Z,8.46
2023-04-24T04:26:17.376Z,8.40
2023-04-24T04:28:45.921Z,8.36
2023-04-24T04:31:12.553Z,8.43
2023-04-24T04:33:40.528Z,8.53
2023-04-24T04:36:07.393Z,8.53
2023-04-24T04:38:34.757Z,8.51
2023-04-24T04:41:01.656Z,8.54
2023-04-24T04:43:28.366Z,8.51
2023-04-24T04:45:55.962Z,8.47
2023-04-24T04:48:23.375Z,8.63
2023-04-24T04:50:50.114Z,8.52
2023-04-24T04:53:16.967Z,8.49
2023-04-24T04:55:43.734Z,8.57
2023-04-24T04:58:10.636Z,8.51
2023-04-24T05:00:38.696Z,8.65
2023-04-24T05:03:19.090Z,8.58
2023-04-24T05:05:47.254Z,8.51
2023-04-24T05:08:25.850Z,8.62
2023-04-24T05:10:54.243Z,8.63
2023-04-24T05:13:25.425Z,8.67
2023-04-24T05:15:59.299Z,8.64
2023-04-24T05:18:25.992Z,8.44
2023-04-24T05:20:52.779Z,8.44
2023-04-24T05:23:19.488Z,8.41
2023-04-24T05:25:47.334Z,8.42
2023-04-24T05:28:14.062Z,8.49
2023-04-24T05:30:40.803Z,8.50
2023-04-24T05:33:07.836Z,8.40
2023-04-24T05:35:34.634Z,8.41
2023-04-24T05:38:01.326Z,8.44
2023-04-24T05:40:28.146Z,8.40
2023-04-24T05:42:54.905Z,8.38
2023-04-24T05:45:21.618Z,8.37
2023-04-24T05:47:48.404Z,8.31
2023-04-24T05:50:15.227Z,8.28
2023-04-24T05:52:41.926Z,8.42
2023-04-24T05:55:09.035Z,8.45
2023-04-24T05:57:35.829Z,8.47
2023-04-24T06:00:02.986Z,8.52
2023-04-24T06:02:33.672Z,8.48
2023-04-24T06:05:00.923Z,8.48
2023-04-24T06:07:27.729Z,8.49
2023-04-24T06:09:54.496Z,8.59
2023-04-24T06:12:21.289Z,8.59
2023-04-24T06:14:48.003Z,8.68
2023-04-24T06:17:15.142Z,8.60
2023-04-24T06:19:42.083Z,8.62
2023-04-24T06:22:10.910Z,8.60
2023-04-24T06:24:37.913Z,8.59
2023-04-24T06:27:04.833Z,8.63
2023-04-24T06:29:31.522Z,8.61
2023-04-24T06:31:58.502Z,8.58
2023-04-24T06:34:25.312Z,8.72
2023-04-24T06:36:52.255Z,8.70
2023-04-24T06:39:18.953Z,8.64
2023-04-24T06:41:45.647Z,8.65
2023-04-24T06:44:12.405Z,8.71
2023-04-24T06:46:41.568Z,8.72
2023-04-24T06:49:08.646Z,8.82
2023-04-24T06:51:35.534Z,8.79
2023-04-24T06:54:02.999Z,8.85
2023-04-24T06:56:30.577Z,8.90
2023-04-24T06:58:57.416Z,8.88
2023-04-24T07:01:24.144Z,9.01
2023-04-24T07:03:51.151Z,9.19
2023-04-24T07:06:19.825Z,9.07
2023-04-24T07:08:47.728Z,9.06
2023-04-24T07:11:14.439Z,9.02
2023-04-24T07:13:43.075Z,9.09
2023-04-24T07:16:10.799Z,9.03
2023-04-24T07:18:38.470Z,9.08
2023-04-24T07:21:05.274Z,9.13
2023-04-24T07:23:32.455Z,9.07
2023-04-24T07:25:59.352Z,9.17
2023-04-24T07:28:26.599Z,9.09
2023-04-24T07:30:55.255Z,9.13
2023-04-24T07:33:22.254Z,9.06
2023-04-24T07:35:49.248Z,9.05
2023-04-24T07:38:16.081Z,9.04
2023-04-24T07:40:43.176Z,9.22
2023-04-24T07:43:09.908Z,9.24
2023-04-24T07:45:38.663Z,9.26
2023-04-24T07:48:05.815Z,9.21
2023-04-24T07:50:32.758Z,9.37
2023-04-24T07:52:59.538Z,9.36
2023-04-24T07:55:28.078Z,9.37
2023-04-24T07:57:55.427Z,9.42
2023-04-24T08:00:22.304Z,9.44
2023-04-24T08:02:49.513Z,9.44
2023-04-24T08:05:16.768Z,9.48
2023-04-24T08:07:43.785Z,9.53
2023-04-24T08:10:14.422Z,9.51
2023-04-24T08:12:42.333Z,9.60
2023-04-24T08:15:09.638Z,9.52
2023-04-24T08:17:36.892Z,9.41
2023-04-24T08:20:06.295Z,9.47
2023-04-24T08:22:33.153Z,9.58
2023-04-24T08:25:01.049Z,9.54
2023-04-24T08:27:27.992Z,9.58
2023-04-24T08:29:55.717Z,9.54
2023-04-24T08:32:22.568Z,9.71
2023-04-24T08:34:49.926Z,9.79
2023-04-24T08:37:16.865Z,10.10
2023-04-24T08:39:44.095Z,9.96
2023-04-24T08:42:12.592Z,9.94
2023-04-24T08:44:39.387Z,9.90
2023-04-24T08:47:06.443Z,10.00
2023-04-24T08:49:33.380Z,10.16
2023-04-24T08:52:00.892Z,10.17
2023-04-24T08:54:27.912Z,10.16
2023-04-24T08:56:55.844Z,10.14
2023-04-24T08:59:23.382Z,10.35
2023-04-24T09:01:51.466Z,10.47
2023-04-24T09:04:21.211Z,10.49
2023-04-24T09:06:49.810Z,10.57
2023-04-24T09:09:18.517Z,10.56
2023-04-24T09:11:45.874Z,10.85
2023-04-24T09:14:12.786Z,10.96
2023-04-24T09:16:39.633Z,10.92
2023-04-24T09:19:06.352Z,10.80
2023-04-24T09:21:34.757Z,10.81
2023-04-24T09:24:03.963Z,11.12
2023-04-24T09:26:35.240Z,11.01
2023-04-24T09:29:01.985Z,11.10
2023-04-24T09:31:30.858Z,11.33
2023-04-24T09:34:02.308Z,11.09
2023-04-24T09:36:38.234Z,11.11
2023-04-24T09:39:09.489Z,11.04
2023-04-24T09:41:36.641Z,10.87
2023-04-24T09:44:15.284Z,11.20
2023-04-24T09:46:47.164Z,11.24
2023-04-24T09:49:16.552Z,11.41
2023-04-24T09:51:43.822Z,11.56
2023-04-24T09:54:18.498Z,11.61
2023-04-24T09:56:46.694Z,11.48
2023-04-24T09:59:15.052Z,11.49
2023-04-24T10:01:43.780Z,11.65
2023-04-24T10:04:20.647Z,11.70
2023-04-24T10:06:50.114Z,11.62
2023-04-24T10:09:18.098Z,11.78
2023-04-24T10:11:48.743Z,11.79
2023-04-24T10:14:17.269Z,11.56
2023-04-24T10:16:45.109Z,11.91
2023-04-24T10:19:14.228Z,11.90
2023-04-24T10:21:47.694Z,12.17
2023-04-24T10:24:16.825Z,12.13
2023-04-24T10:26:44.532Z,11.99
2023-04-24T10:29:16.633Z,12.07
2023-04-24T10:31:46.619Z,12.16
2023-04-24T10:34:14.034Z,12.04
2023-04-24T10:36:43.135Z,12.27
2023-04-24T10:39:13.477Z,12.39
2023-04-24T10:41:40.897Z,12.12
2023-04-24T10:44:09.143Z,12.18
2023-04-24T10:46:36.195Z,12.13
2023-04-24T10:49:12.469Z,12.22
2023-04-24T10:51:55.521Z,12.60
2023-04-24T10:54:35.066Z,12.60
2023-04-24T10:57:23.443Z,12.90
2023-04-24T10:59:52.652Z,12.57
2023-04-24T11:02:20.045Z,12.48
2023-04-24T11:04:47.680Z,12.88
2023-04-24T11:07:14.672Z,13.02
2023-04-24T11:09:44.375Z,12.45
2023-04-24T11:12:12.641Z,12.08
2023-04-24T11:15:11.980Z,12.27
2023-04-24T11:17:41.487Z,12.47
2023-04-24T11:20:26.122Z,12.67
2023-04-24T11:22:56.639Z,12.72
2023-04-24T11:25:23.973Z,12.12
2023-04-24T11:27:51.277Z,12.37
2023-04-24T11:30:21.742Z,12.37
2023-04-24T11:32:50.992Z,12.17
2023-04-24T11:35:22.765Z,12.09
2023-04-24T11:40:23.882Z,11.94
2023-04-24T11:42:52.168Z,11.88
2023-04-24T11:45:22.770Z,11.87
2023-04-24T11:47:50.429Z,11.71
2023-04-24T11:50:19.115Z,11.91
2023-04-24T11:52:47.973Z,11.96
2023-04-24T11:55:20.841Z,12.02
2023-04-24T11:57:52.414Z,11.57
2023-04-24T12:00:21.677Z,11.77
2023-04-24T12:02:49.279Z,11.88
2023-04-24T12:05:29.031Z,12.00
2023-04-24T12:07:55.979Z,12.29
2023-04-24T12:10:24.721Z,12.02
2023-04-24T12:12:52.787Z,12.17
2023-04-24T12:15:23.089Z,12.46
2023-04-24T12:17:52.815Z,12.27
2023-04-24T12:20:26.056Z,12.42
2023-04-24T12:22:55.775Z,12.60
2023-04-24T12:25:38.666Z,12.92
2023-04-24T12:28:05.562Z,12.98
2023-04-24T12:30:40.627Z,13.00
2023-04-24T12:33:07.564Z,12.96
2023-04-24T12:35:35.111Z,12.92
2023-04-24T12:38:14.067Z,12.88
2023-04-24T12:40:42.793Z,12.45
2023-04-24T12:43:17.522Z,12.41
2023-04-24T12:45:45.279Z,12.57
2023-04-24T12:48:12.370Z,12.23
2023-04-24T12:50:39.669Z,12.20
2023-04-24T12:53:07.679Z,12.41
2023-04-24T12:55:34.559Z,12.50
2023-04-24T12:58:01.649Z,12.51
2023-04-24T13:00:28.430Z,12.22
2023-04-24T13:02:55.669Z,12.10
2023-04-24T13:05:24.782Z,12.25
2023-04-24T13:07:52.005Z,12.21
2023-04-24T13:10:18.791Z,12.17
2023-04-24T13:12:47.234Z,12.32
2023-04-24T13:15:14.559Z,12.31
2023-04-24T13:17:41.352Z,12.17
2023-04-24T13:20:08.667Z,11.94
2023-04-24T13:22:35.522Z,12.02
2023-04-24T13:25:02.402Z,12.21
2023-04-24T13:27:29.165Z,11.78
2023-04-24T13:29:55.939Z,11.59
2023-04-24T13:32:22.799Z,11.71
2023-04-24T13:34:49.720Z,11.90
2023-04-24T13:37:16.399Z,12.09
2023-04-24T13:39:43.188Z,11.90
2023-04-24T13:42:10.136Z,11.87
2023-04-24T13:44:36.922Z,11.95
2023-04-24T13:47:03.807Z,11.89
2023-04-24T13:49:30.637Z,11.65
2023-04-24T13:51:58.170Z,11.83
2023-04-24T13:54:27.020Z,11.82
2023-04-24T13:56:54.068Z,11.63
2023-04-24T13:59:22.464Z,11.67
2023-04-24T14:01:49.581Z,11.66
2023-04-24T14:04:16.816Z,11.70
2023-04-24T14:06:44.273Z,11.74
2023-04-24T14:09:11.223Z,11.98
2023-04-24T14:11:38.120Z,11.86
2023-04-24T14:14:05.164Z,11.70
2023-04-24T14:16:32.673Z,11.71
2023-04-24T14:18:59.474Z,11.86
2023-04-24T14:21:26.471Z,11.82
2023-04-24T14:23:53.306Z,11.79
2023-04-24T14:26:20.976Z,11.95
2023-04-24T14:28:47.724Z,12.07
2023-04-24T14:31:14.599Z,12.24
2023-04-24T14:33:41.351Z,12.34
2023-04-24T14:36:08.270Z,12.30
2023-04-24T14:38:35.996Z,12.32
2023-04-24T14:41:10.587Z,12.44
2023-04-24T14:43:39.926Z,12.33
2023-04-24T14:46:07.014Z,12.12
2023-04-24T14:48:33.675Z,12.16
2023-04-24T14:51:00.394Z,12.06
2023-04-24T14:53:27.170Z,12.10
2023-04-24T14:55:54.813Z,12.11
2023-04-24T14:58:21.632Z,11.89
2023-04-24T15:00:51.055Z,11.82
2023-04-24T15:03:19.034Z,11.53
2023-04-24T15:05:46.097Z,11.50
2023-04-24T15:08:12.884Z,11.54
2023-04-24T15:10:39.656Z,11.57
2023-04-24T15:13:06.458Z,11.42
2023-04-24T15:15:33.218Z,11.37
2023-04-24T15:17:59.971Z,11.15
2023-04-24T15:20:26.676Z,11.05
2023-04-24T15:22:53.648Z,10.97
2023-04-24T15:25:20.733Z,10.76
2023-04-24T15:27:47.471Z,10.64
2023-04-24T15:30:14.939Z,10.61
2023-04-24T15:32:41.925Z,10.48
2023-04-24T15:35:10.422Z,10.53
2023-04-24T15:37:38.561Z,10.56
2023-04-24T15:40:08.116Z,10.50
2023-04-24T15:42:35.935Z,10.52
2023-04-24T15:45:02.916Z,10.48
2023-04-24T15:47:29.673Z,10.47
2023-04-24T15:49:56.533Z,10.48
2023-04-24T15:52:23.371Z,10.16
2023-04-24T15:54:50.399Z,10.30
2023-04-24T15:57:17.233Z,10.22
2023-04-24T15:59:44.791Z,10.39
2023-04-24T16:02:20.996Z,10.28
2023-04-24T16:04:49.136Z,10.35
2023-04-24T16:07:18.297Z,10.31
2023-04-24T16:09:45.378Z,10.41
2023-04-24T16:12:12.643Z,10.15
2023-04-24T16:14:39.429Z,10.32
2023-04-24T16:17:06.868Z,10.28
2023-04-24T16:19:36.502Z,10.31
2023-04-24T16:22:04.452Z,10.21
2023-04-24T16:24:31.400Z,10.28
2023-04-24T16:26:58.210Z,10.15
2023-04-24T16:29:25.041Z,10.16
2023-04-24T16:31:52.513Z,10.15
2023-04-24T16:34:19.358Z,9.99
2023-04-24T16:36:46.322Z,9.98
2023-04-24T16:39:13.738Z,9.94
2023-04-24T16:41:40.592Z,9.92
2023-04-24T16:44:07.746Z,9.66
2023-04-24T16:46:34.914Z,9.73
2023-04-24T16:49:01.744Z,9.70
2023-04-24T16:51:29.084Z,9.63
2023-04-24T16:53:56.068Z,9.66
2023-04-24T16:56:22.792Z,9.51
2023-04-24T16:58:50.146Z,9.47
2023-04-24T17:01:17.247Z,9.65
2023-04-24T17:03:44.347Z,9.42
2023-04-24T17:06:11.265Z,9.28
2023-04-24T17:08:40.260Z,9.20
2023-04-24T17:11:06.901Z,9.22
2023-04-24T17:13:33.822Z,9.21
2023-04-24T17:16:00.812Z,9.31
2023-04-24T17:18:27.646Z,9.30
2023-04-24T17:20:54.416Z,9.28
2023-04-24T17:23:21.623Z,9.32
2023-04-24T17:25:48.918Z,9.30
2023-04-24T17:28:25.444Z,9.27
2023-04-24T17:30:52.360Z,9.26
2023-04-24T17:33:19.170Z,9.25
2023-04-24T17:35:46.074Z,9.29
2023-04-24T17:38:12.992Z,9.17
2023-04-24T17:40:40.435Z,9.06
2023-04-24T17:43:07.220Z,9.12
2023-04-24T17:45:33.858Z,9.16
2023-04-24T17:48:00.603Z,9.17
2023-04-24T17:50:27.555Z,9.13
2023-04-24T17:52:54.172Z,9.14
2023-04-24T17:55:20.953Z,9.04
2023-04-24T17:57:47.818Z,9.05
2023-04-24T18:00:14.908Z,8.98
2023-04-24T18:02:41.774Z,8.89
2023-04-24T18:05:08.609Z,8.92
2023-04-24T18:07:35.382Z,8.86
2023-04-24T18:10:02.158Z,8.85
2023-04-24T18:12:28.940Z,8.88
2023-04-24T18:15:06.703Z,8.89
2023-04-24T18:17:40.235Z,8.80
2023-04-24T18:20:07.653Z,8.75
2023-04-24T18:22:34.391Z,8.78
2023-04-24T18:25:01.409Z,8.78
2023-04-24T18:27:31.146Z,8.75
2023-04-24T18:30:00.821Z,8.75
2023-04-24T18:32:27.745Z,8.77
2023-04-24T18:34:54.491Z,8.77
2023-04-24T18:37:21.186Z,8.71
2023-04-24T18:39:48.505Z,8.69
2023-04-24T18:42:15.525Z,8.60
2023-04-24T18:44:42.871Z,8.44
2023-04-24T18:47:10.597Z,8.42
2023-04-24T18:49:37.642Z,8.34
2023-04-24T18:52:04.478Z,8.35
2023-04-24T18:54:31.702Z,8.36
2023-04-24T18:56:59.710Z,8.29
2023-04-24T18:59:27.752Z,8.23
2023-04-24T19:01:54.586Z,8.23
2023-04-24T19:04:22.089Z,8.18
2023-04-24T19:06:49.055Z,8.20
2023-04-24T19:09:15.836Z,8.21
2023-04-24T19:11:43.684Z,8.09
2023-04-24T19:14:11.214Z,8.06
2023-04-24T19:16:37.936Z,8.16
2023-04-24T19:19:05.711Z,8.16
2023-04-24T19:21:33.516Z,8.18
2023-04-24T19:24:01.139Z,8.19
2023-04-24T19:26:31.551Z,8.13
2023-04-24T19:28:59.049Z,8.12
2023-04-24T19:31:26.446Z,8.13
2023-04-24T19:33:53.383Z,8.08
2023-04-24T19:36:20.352Z,8.10
2023-04-24T19:38:47.517Z,8.14
2023-04-24T19:41:14.314Z,8.13
2023-04-24T19:43:40.885Z,8.06
2023-04-24T19:46:07.709Z,8.06
2023-04-24T19:48:34.424Z,8.08
2023-04-24T19:51:01.716Z,8.07
2023-04-24T19:53:29.442Z,8.06
2023-04-24T19:55:56.482Z,8.10
2023-04-24T19:58:23.160Z,8.09
2023-04-24T20:00:49.791Z,8.00
2023-04-24T20:03:31.391Z,8.12
2023-04-24T20:28:41.934Z,8.04
2023-04-24T20:31:08.624Z,8.02
2023-04-24T20:33:38.036Z,8.10
2023-04-24T20:36:04.869Z,8.09
2023-04-24T20:38:31.494Z,8.07
2023-04-24T20:40:58.526Z,8.04
2023-04-24T20:43:28.722Z,7.99
2023-04-24T20:45:57.928Z,7.95
2023-04-24T20:48:25.044Z,7.92
2023-04-24T20:50:53.893Z,8.00
2023-04-24T20:53:21.152Z,7.95
2023-04-24T20:55:48.136Z,7.95
2023-04-24T20:58:16.032Z,7.95
2023-04-24T21:00:42.670Z,7.89
2023-04-24T21:03:14.516Z,7.88
2023-04-24T21:05:41.240Z,7.78
2023-04-24T21:08:08.061Z,7.74
2023-04-24T21:10:34.662Z,7.62
2023-04-24T21:13:01.395Z,7.57
2023-04-24T21:15:28.298Z,7.35
2023-04-24T21:17:55.238Z,7.29
2023-04-24T21:20:21.882Z,7.26
2023-04-24T21:22:48.513Z,7.39
2023-04-24T21:25:15.127Z,7.49
2023-04-24T21:27:43.454Z,7.55
2023-04-24T21:30:10.480Z,7.59
2023-04-24T21:32:37.297Z,7.56
2023-04-24T21:35:04.030Z,7.57
2023-04-24T21:37:32.868Z,7.56
2023-04-24T21:39:59.634Z,7.53
2023-04-24T21:42:26.302Z,7.49
2023-04-24T21:44:52.900Z,7.50
2023-04-24T21:47:19.476Z,7.48
2023-04-24T21:49:46.056Z,7.46
2023-04-24T21:52:12.598Z,7.42
2023-04-24T21:54:39.224Z,7.45
2023-04-24T21:57:05.914Z,7.34
2023-04-24T21:59:33.785Z,7.23
2023-04-24T22:02:00.387Z,7.24
2023-04-24T22:04:27.559Z,7.29
2023-04-24T22:06:54.401Z,7.33
2023-04-24T22:09:21.599Z,7.26
2023-04-24T22:11:48.728Z,7.30
2023-04-24T22:14:15.720Z,7.34
2023-04-24T22:16:42.330Z,7.32
2023-04-24T22:19:09.410Z,7.34
2023-04-24T22:21:36.388Z,7.33
2023-04-24T22:24:03.179Z,7.33
2023-04-24T22:26:29.782Z,7.28
2023-04-24T22:28:56.578Z,7.21
2023-04-24T22:31:23.881Z,7.14
2023-04-24T22:33:51.686Z,7.19
2023-04-24T22:36:18.577Z,7.17
2023-04-24T22:38:45.239Z,7.17
2023-04-24T22:41:11.949Z,7.13
2023-04-24T22:43:38.761Z,7.14
2023-04-24T22:46:05.584Z,7.12
2023-04-24T22:48:32.963Z,7.14
2023-04-24T22:50:59.743Z,7.07
2023-04-24T22:53:27.709Z,7.07
2023-04-24T22:55:58.275Z,7.06
2023-04-24T22:58:25.248Z,6.76
2023-04-24T23:00:52.196Z,6.73
2023-04-24T23:03:19.023Z,6.65
2023-04-24T23:05:46.030Z,6.47
2023-04-24T23:08:12.798Z,6.49
2023-04-24T23:10:39.604Z,6.57
2023-04-24T23:13:06.486Z,6.42
2023-04-24T23:15:34.744Z,6.38
2023-04-24T23:18:01.661Z,6.42
2023-04-24T23:20:28.513Z,6.46
2023-04-24T23:22:55.338Z,6.44
2023-04-24T23:25:22.152Z,6.27
2023-04-24T23:27:48.888Z,6.37
2023-04-24T23:30:15.587Z,6.41
2023-04-24T23:32:44.303Z,6.34
2023-04-24T23:35:11.761Z,6.32
2023-04-24T23:37:38.699Z,6.35
2023-04-24T23:40:11.291Z,6.34
2023-04-24T23:42:38.266Z,6.36
2023-04-24T23:45:05.587Z,6.40
2023-04-24T23:47:32.368Z,6.34
2023-04-24T23:49:59.159Z,6.19
2023-04-24T23:52:25.912Z,6.31
2023-04-24T23:54:52.864Z,6.27
2023-04-24T23:57:20.008Z,6.29
2023-04-24T23:59:46.690Z,6.32
